sensor_id;sensor_type;location;lat;lon;timestamp;temperature;humidity
23497;DHT22;11925;48.122;11.560;2022-09-02T00:02:34;18.20;99.90
23497;DHT22;11925;48.122;11.560;2022-09-02T00:05:05;18.20;99.90
23497;DHT22;11925;48.122;11.560;2022-09-02T00:07:34;18.20;99.90
23497;DHT22;11925;48.122;11.560;2022-09-02T00:10:03;18.20;99.90
23497;DHT22;11925;48.122;11.560;2022-09-02T00:12:31;18.20;99.90
23497;DHT22;11925;48.122;11.560;2022-09-02T00:14:59;18.20;99.90
23497;DHT22;11925;48.122;11.560;2022-09-02T00:17:28;18.20;99.90
23497;DHT22;11925;48.122;11.560;2022-09-02T00:19:56;18.30;99.90
23497;DHT22;11925;48.122;11.560;2022-09-02T00:22:26;18.30;99.90
23497;DHT22;11925;48.122;11.560;2022-09-02T00:24:54;18.20;99.90
23497;DHT22;11925;48.122;11.560;2022-09-02T00:27:23;18.20;99.90
23497;DHT22;11925;48.122;11.560;2022-09-02T00:29:52;18.20;99.90
23497;DHT22;11925;48.122;11.560;2022-09-02T00:32:20;18.20;99.90
23497;DHT22;11925;48.122;11.560;2022-09-02T00:34:48;18.20;99.90
23497;DHT22;11925;48.122;11.560;2022-09-02T00:37:17;18.20;99.90
23497;DHT22;11925;48.122;11.560;2022-09-02T00:39:47;18.20;99.90
23497;DHT22;11925;48.122;11.560;2022-09-02T00:42:15;18.20;99.90
23497;DHT22;11925;48.122;11.560;2022-09-02T00:44:44;18.20;99.90
23497;DHT22;11925;48.122;11.560;2022-09-02T00:47:12;18.20;99.90
23497;DHT22;11925;48.122;11.560;2022-09-02T00:49:44;18.20;99.90
23497;DHT22;11925;48.122;11.560;2022-09-02T00:52:16;18.10;99.90
23497;DHT22;11925;48.122;11.560;2022-09-02T00:54:51;18.20;99.90
23497;DHT22;11925;48.122;11.560;2022-09-02T00:57:23;18.20;99.90
23497;DHT22;11925;48.122;11.560;2022-09-02T00:59:59;17.20;99.90
23497;DHT22;11925;48.122;11.560;2022-09-02T01:02:29;18.20;99.90
23497;DHT22;11925;48.122;11.560;2022-09-02T01:04:59;18.20;99.90
23497;DHT22;11925;48.122;11.560;2022-09-02T01:07:32;18.20;99.90
23497;DHT22;11925;48.122;11.560;2022-09-02T01:10:04;18.20;99.90
23497;DHT22;11925;48.122;11.560;2022-09-02T01:12:32;18.20;99.90
23497;DHT22;11925;48.122;11.560;2022-09-02T01:15:03;18.20;99.90
23497;DHT22;11925;48.122;11.560;2022-09-02T01:17:32;18.20;99.90
23497;DHT22;11925;48.122;11.560;2022-09-02T01:20:04;18.20;99.90
23497;DHT22;11925;48.122;11.560;2022-09-02T01:22:35;18.20;99.90
23497;DHT22;11925;48.122;11.560;2022-09-02T01:25:08;18.20;99.90
23497;DHT22;11925;48.122;11.560;2022-09-02T01:27:38;18.20;99.90
23497;DHT22;11925;48.122;11.560;2022-09-02T01:30:08;18.20;99.90
23497;DHT22;11925;48.122;11.560;2022-09-02T01:32:37;18.30;99.90
23497;DHT22;11925;48.122;11.560;2022-09-02T01:35:06;18.20;99.90
23497;DHT22;11925;48.122;11.560;2022-09-02T01:37:36;18.20;99.90
23497;DHT22;11925;48.122;11.560;2022-09-02T01:40:08;18.30;99.90
23497;DHT22;11925;48.122;11.560;2022-09-02T01:42:37;18.30;99.90
23497;DHT22;11925;48.122;11.560;2022-09-02T01:45:07;18.30;99.90
23497;DHT22;11925;48.122;11.560;2022-09-02T01:47:36;18.30;99.90
23497;DHT22;11925;48.122;11.560;2022-09-02T01:50:05;18.30;99.90
23497;DHT22;11925;48.122;11.560;2022-09-02T01:52:33;18.30;99.90
23497;DHT22;11925;48.122;11.560;2022-09-02T01:55:04;18.30;99.90
23497;DHT22;11925;48.122;11.560;2022-09-02T01:57:33;18.30;99.90
23497;DHT22;11925;48.122;11.560;2022-09-02T02:00:06;18.50;99.90
23497;DHT22;11925;48.122;11.560;2022-09-02T02:02:38;18.40;99.90
23497;DHT22;11925;48.122;11.560;2022-09-02T02:05:10;18.30;99.90
23497;DHT22;11925;48.122;11.560;2022-09-02T02:07:40;18.30;99.90
23497;DHT22;11925;48.122;11.560;2022-09-02T02:10:12;18.20;99.90
23497;DHT22;11925;48.122;11.560;2022-09-02T02:15:13;18.40;99.90
23497;DHT22;11925;48.122;11.560;2022-09-02T02:17:43;18.30;99.90
23497;DHT22;11925;48.122;11.560;2022-09-02T02:20:12;18.20;99.90
23497;DHT22;11925;48.122;11.560;2022-09-02T02:22:42;18.30;99.90
23497;DHT22;11925;48.122;11.560;2022-09-02T02:25:13;18.30;99.90
23497;DHT22;11925;48.122;11.560;2022-09-02T02:27:42;18.30;99.90
23497;DHT22;11925;48.122;11.560;2022-09-02T02:30:13;18.20;99.90
23497;DHT22;11925;48.122;11.560;2022-09-02T02:32:43;18.30;99.90
23497;DHT22;11925;48.122;11.560;2022-09-02T02:35:16;18.30;99.90
23497;DHT22;11925;48.122;11.560;2022-09-02T02:37:47;18.30;99.90
23497;DHT22;11925;48.122;11.560;2022-09-02T02:40:20;18.20;99.90
23497;DHT22;11925;48.122;11.560;2022-09-02T02:42:50;18.20;99.90
23497;DHT22;11925;48.122;11.560;2022-09-02T02:45:23;18.10;99.90
23497;DHT22;11925;48.122;11.560;2022-09-02T02:47:52;18.20;99.90
23497;DHT22;11925;48.122;11.560;2022-09-02T02:50:23;18.10;99.90
23497;DHT22;11925;48.122;11.560;2022-09-02T02:52:52;18.10;99.90
23497;DHT22;11925;48.122;11.560;2022-09-02T02:55:24;18.00;99.90
23497;DHT22;11925;48.122;11.560;2022-09-02T02:57:53;18.00;99.90
23497;DHT22;11925;48.122;11.560;2022-09-02T03:00:24;18.00;99.90
23497;DHT22;11925;48.122;11.560;2022-09-02T03:02:54;18.10;99.90
23497;DHT22;11925;48.122;11.560;2022-09-02T03:05:23;18.00;99.90
23497;DHT22;11925;48.122;11.560;2022-09-02T03:07:52;18.10;99.90
23497;DHT22;11925;48.122;11.560;2022-09-02T03:10:23;18.10;99.90
23497;DHT22;11925;48.122;11.560;2022-09-02T03:12:53;18.10;99.90
23497;DHT22;11925;48.122;11.560;2022-09-02T03:15:21;18.10;99.90
23497;DHT22;11925;48.122;11.560;2022-09-02T03:17:53;18.10;99.90
23497;DHT22;11925;48.122;11.560;2022-09-02T03:20:23;18.10;99.90
23497;DHT22;11925;48.122;11.560;2022-09-02T03:22:57;18.00;99.90
23497;DHT22;11925;48.122;11.560;2022-09-02T03:25:29;18.10;99.90
23497;DHT22;11925;48.122;11.560;2022-09-02T03:28:07;18.10;99.90
23497;DHT22;11925;48.122;11.560;2022-09-02T03:30:38;18.10;99.90
23497;DHT22;11925;48.122;11.560;2022-09-02T03:33:08;18.00;99.90
23497;DHT22;11925;48.122;11.560;2022-09-02T03:35:38;18.00;99.90
23497;DHT22;11925;48.122;11.560;2022-09-02T03:38:08;18.00;99.90
23497;DHT22;11925;48.122;11.560;2022-09-02T03:40:38;18.00;99.90
23497;DHT22;11925;48.122;11.560;2022-09-02T03:43:07;18.00;99.90
23497;DHT22;11925;48.122;11.560;2022-09-02T03:45:37;18.00;99.90
23497;DHT22;11925;48.122;11.560;2022-09-02T03:48:11;18.00;99.90
23497;DHT22;11925;48.122;11.560;2022-09-02T03:50:42;17.90;99.90
23497;DHT22;11925;48.122;11.560;2022-09-02T03:53:16;17.90;99.90
23497;DHT22;11925;48.122;11.560;2022-09-02T03:55:56;17.90;99.90
23497;DHT22;11925;48.122;11.560;2022-09-02T03:58:26;17.90;99.90
23497;DHT22;11925;48.122;11.560;2022-09-02T04:00:57;17.90;99.90
23497;DHT22;11925;48.122;11.560;2022-09-02T04:03:25;17.90;99.90
23497;DHT22;11925;48.122;11.560;2022-09-02T04:05:54;17.90;99.90
23497;DHT22;11925;48.122;11.560;2022-09-02T04:08:25;17.90;99.90
23497;DHT22;11925;48.122;11.560;2022-09-02T04:11:04;17.80;99.90
23497;DHT22;11925;48.122;11.560;2022-09-02T04:13:33;17.80;99.90
23497;DHT22;11925;48.122;11.560;2022-09-02T04:16:06;17.80;99.90
23497;DHT22;11925;48.122;11.560;2022-09-02T04:18:36;17.80;99.90
23497;DHT22;11925;48.122;11.560;2022-09-02T04:21:05;17.90;99.90
23497;DHT22;11925;48.122;11.560;2022-09-02T04:23:35;17.80;99.90
23497;DHT22;11925;48.122;11.560;2022-09-02T04:26:07;17.80;99.90
23497;DHT22;11925;48.122;11.560;2022-09-02T04:28:36;17.80;99.90
23497;DHT22;11925;48.122;11.560;2022-09-02T04:31:07;17.80;99.90
23497;DHT22;11925;48.122;11.560;2022-09-02T04:33:36;17.80;99.90
23497;DHT22;11925;48.122;11.560;2022-09-02T04:36:08;17.80;99.90
23497;DHT22;11925;48.122;11.560;2022-09-02T04:38:39;17.90;99.90
23497;DHT22;11925;48.122;11.560;2022-09-02T04:41:12;17.90;99.90
23497;DHT22;11925;48.122;11.560;2022-09-02T04:43:41;17.80;99.90
23497;DHT22;11925;48.122;11.560;2022-09-02T04:46:12;17.90;99.90
23497;DHT22;11925;48.122;11.560;2022-09-02T04:48:44;17.80;99.90
23497;DHT22;11925;48.122;11.560;2022-09-02T04:51:16;17.80;99.90
23497;DHT22;11925;48.122;11.560;2022-09-02T04:53:46;17.80;99.90
23497;DHT22;11925;48.122;11.560;2022-09-02T04:56:22;17.80;99.90
23497;DHT22;11925;48.122;11.560;2022-09-02T04:58:52;17.80;99.90
23497;DHT22;11925;48.122;11.560;2022-09-02T05:01:24;17.90;99.90
23497;DHT22;11925;48.122;11.560;2022-09-02T05:03:55;17.90;99.90
23497;DHT22;11925;48.122;11.560;2022-09-02T05:06:27;17.90;99.90
23497;DHT22;11925;48.122;11.560;2022-09-02T05:08:59;17.90;99.90
23497;DHT22;11925;48.122;11.560;2022-09-02T05:11:33;17.90;99.90
23497;DHT22;11925;48.122;11.560;2022-09-02T05:14:04;17.90;99.90
23497;DHT22;11925;48.122;11.560;2022-09-02T05:16:36;17.90;99.90
23497;DHT22;11925;48.122;11.560;2022-09-02T05:19:10;17.90;99.90
23497;DHT22;11925;48.122;11.560;2022-09-02T05:21:45;17.90;99.90
23497;DHT22;11925;48.122;11.560;2022-09-02T05:24:22;17.90;99.90
23497;DHT22;11925;48.122;11.560;2022-09-02T05:26:56;17.90;99.90
23497;DHT22;11925;48.122;11.560;2022-09-02T05:29:25;17.90;99.90
23497;DHT22;11925;48.122;11.560;2022-09-02T05:31:55;17.90;99.90
23497;DHT22;11925;48.122;11.560;2022-09-02T05:34:25;17.90;99.90
23497;DHT22;11925;48.122;11.560;2022-09-02T05:36:57;17.80;99.90
23497;DHT22;11925;48.122;11.560;2022-09-02T05:39:28;17.90;99.90
23497;DHT22;11925;48.122;11.560;2022-09-02T05:41:59;17.90;99.90
23497;DHT22;11925;48.122;11.560;2022-09-02T05:44:28;18.00;99.90
23497;DHT22;11925;48.122;11.560;2022-09-02T05:46:59;18.00;99.90
23497;DHT22;11925;48.122;11.560;2022-09-02T05:49:27;17.90;99.90
23497;DHT22;11925;48.122;11.560;2022-09-02T05:52:03;18.00;99.90
23497;DHT22;11925;48.122;11.560;2022-09-02T05:54:42;17.90;99.90
23497;DHT22;11925;48.122;11.560;2022-09-02T05:57:16;17.90;99.90
23497;DHT22;11925;48.122;11.560;2022-09-02T06:00:12;17.90;99.90
23497;DHT22;11925;48.122;11.560;2022-09-02T06:02:52;17.90;99.90
23497;DHT22;11925;48.122;11.560;2022-09-02T06:05:29;17.90;99.90
23497;DHT22;11925;48.122;11.560;2022-09-02T06:08:05;17.90;99.90
23497;DHT22;11925;48.122;11.560;2022-09-02T06:10:40;17.90;99.90
23497;DHT22;11925;48.122;11.560;2022-09-02T06:13:13;18.00;99.90
23497;DHT22;11925;48.122;11.560;2022-09-02T06:15:42;17.90;99.90
23497;DHT22;11925;48.122;11.560;2022-09-02T06:18:13;17.90;99.90
23497;DHT22;11925;48.122;11.560;2022-09-02T06:20:45;17.90;99.90
23497;DHT22;11925;48.122;11.560;2022-09-02T06:23:15;17.90;99.90
23497;DHT22;11925;48.122;11.560;2022-09-02T06:25:46;17.90;99.90
23497;DHT22;11925;48.122;11.560;2022-09-02T06:28:17;18.00;99.90
23497;DHT22;11925;48.122;11.560;2022-09-02T06:30:47;18.00;99.90
23497;DHT22;11925;48.122;11.560;2022-09-02T06:33:21;18.00;99.90
23497;DHT22;11925;48.122;11.560;2022-09-02T06:35:50;18.00;99.90
23497;DHT22;11925;48.122;11.560;2022-09-02T06:38:19;18.00;99.90
23497;DHT22;11925;48.122;11.560;2022-09-02T06:40:52;18.00;99.90
23497;DHT22;11925;48.122;11.560;2022-09-02T06:43:28;18.00;99.90
23497;DHT22;11925;48.122;11.560;2022-09-02T06:46:20;18.00;99.90
23497;DHT22;11925;48.122;11.560;2022-09-02T06:48:52;18.00;99.90
23497;DHT22;11925;48.122;11.560;2022-09-02T06:51:24;18.00;99.90
23497;DHT22;11925;48.122;11.560;2022-09-02T06:53:54;18.00;99.90
23497;DHT22;11925;48.122;11.560;2022-09-02T06:56:26;18.00;99.90
23497;DHT22;11925;48.122;11.560;2022-09-02T06:58:56;18.00;99.90
23497;DHT22;11925;48.122;11.560;2022-09-02T07:01:40;18.00;99.90
23497;DHT22;11925;48.122;11.560;2022-09-02T07:04:10;18.00;99.90
23497;DHT22;11925;48.122;11.560;2022-09-02T07:06:56;18.00;99.90
23497;DHT22;11925;48.122;11.560;2022-09-02T07:09:28;17.90;99.90
23497;DHT22;11925;48.122;11.560;2022-09-02T07:12:05;18.00;99.90
23497;DHT22;11925;48.122;11.560;2022-09-02T07:14:41;18.00;99.90
23497;DHT22;11925;48.122;11.560;2022-09-02T07:17:14;18.00;99.90
23497;DHT22;11925;48.122;11.560;2022-09-02T07:19:47;18.00;99.90
23497;DHT22;11925;48.122;11.560;2022-09-02T07:22:16;18.00;99.90
23497;DHT22;11925;48.122;11.560;2022-09-02T07:24:45;18.00;99.90
23497;DHT22;11925;48.122;11.560;2022-09-02T07:27:14;18.00;99.90
23497;DHT22;11925;48.122;11.560;2022-09-02T07:29:44;17.90;99.90
23497;DHT22;11925;48.122;11.560;2022-09-02T07:32:14;18.00;99.90
23497;DHT22;11925;48.122;11.560;2022-09-02T07:34:43;18.00;99.90
23497;DHT22;11925;48.122;11.560;2022-09-02T07:37:12;18.00;99.90
23497;DHT22;11925;48.122;11.560;2022-09-02T07:39:42;18.00;99.90
23497;DHT22;11925;48.122;11.560;2022-09-02T07:42:14;18.00;99.90
23497;DHT22;11925;48.122;11.560;2022-09-02T07:44:45;18.00;99.90
23497;DHT22;11925;48.122;11.560;2022-09-02T07:47:14;18.00;99.90
23497;DHT22;11925;48.122;11.560;2022-09-02T07:49:45;18.00;99.90
23497;DHT22;11925;48.122;11.560;2022-09-02T07:52:33;18.00;99.90
23497;DHT22;11925;48.122;11.560;2022-09-02T07:55:02;18.00;99.90
23497;DHT22;11925;48.122;11.560;2022-09-02T07:57:31;18.00;99.90
23497;DHT22;11925;48.122;11.560;2022-09-02T08:00:02;18.00;99.90
23497;DHT22;11925;48.122;11.560;2022-09-02T08:02:40;18.00;99.90
23497;DHT22;11925;48.122;11.560;2022-09-02T08:05:12;18.00;99.90
23497;DHT22;11925;48.122;11.560;2022-09-02T08:07:41;18.00;99.90
23497;DHT22;11925;48.122;11.560;2022-09-02T08:10:10;18.10;99.90
23497;DHT22;11925;48.122;11.560;2022-09-02T08:12:41;18.00;99.90
23497;DHT22;11925;48.122;11.560;2022-09-02T08:15:12;18.00;99.90
23497;DHT22;11925;48.122;11.560;2022-09-02T08:17:41;18.00;99.90
23497;DHT22;11925;48.122;11.560;2022-09-02T08:20:11;18.10;99.90
23497;DHT22;11925;48.122;11.560;2022-09-02T08:22:40;18.00;99.90
23497;DHT22;11925;48.122;11.560;2022-09-02T08:25:09;18.00;99.90
23497;DHT22;11925;48.122;11.560;2022-09-02T08:27:38;18.00;99.90
23497;DHT22;11925;48.122;11.560;2022-09-02T08:30:08;18.00;99.90
23497;DHT22;11925;48.122;11.560;2022-09-02T08:32:38;18.00;99.90
23497;DHT22;11925;48.122;11.560;2022-09-02T08:35:08;18.00;99.90
23497;DHT22;11925;48.122;11.560;2022-09-02T08:37:37;18.10;99.90
23497;DHT22;11925;48.122;11.560;2022-09-02T08:40:08;18.00;99.90
23497;DHT22;11925;48.122;11.560;2022-09-02T08:42:44;18.00;99.90
23497;DHT22;11925;48.122;11.560;2022-09-02T08:45:21;18.10;99.90
23497;DHT22;11925;48.122;11.560;2022-09-02T08:48:00;18.00;99.90
23497;DHT22;11925;48.122;11.560;2022-09-02T08:50:31;18.00;99.90
23497;DHT22;11925;48.122;11.560;2022-09-02T08:53:05;18.00;99.90
23497;DHT22;11925;48.122;11.560;2022-09-02T08:55:43;18.00;99.90
23497;DHT22;11925;48.122;11.560;2022-09-02T08:58:16;18.00;99.90
23497;DHT22;11925;48.122;11.560;2022-09-02T09:00:51;18.00;99.90
23497;DHT22;11925;48.122;11.560;2022-09-02T09:03:26;18.00;99.90
23497;DHT22;11925;48.122;11.560;2022-09-02T09:06:01;18.00;99.90
23497;DHT22;11925;48.122;11.560;2022-09-02T09:08:39;18.00;99.90
23497;DHT22;11925;48.122;11.560;2022-09-02T09:11:14;18.00;99.90
23497;DHT22;11925;48.122;11.560;2022-09-02T09:14:08;18.00;99.90
23497;DHT22;11925;48.122;11.560;2022-09-02T09:16:40;18.00;99.90
23497;DHT22;11925;48.122;11.560;2022-09-02T09:19:13;18.00;99.90
23497;DHT22;11925;48.122;11.560;2022-09-02T09:21:43;18.00;99.90
23497;DHT22;11925;48.122;11.560;2022-09-02T09:24:29;18.00;99.90
23497;DHT22;11925;48.122;11.560;2022-09-02T09:27:00;18.00;99.90
23497;DHT22;11925;48.122;11.560;2022-09-02T09:29:31;18.00;99.90
23497;DHT22;11925;48.122;11.560;2022-09-02T09:32:00;18.00;99.90
23497;DHT22;11925;48.122;11.560;2022-09-02T09:35:01;18.00;99.90
23497;DHT22;11925;48.122;11.560;2022-09-02T09:37:35;18.00;99.90
23497;DHT22;11925;48.122;11.560;2022-09-02T09:40:29;18.10;99.90
23497;DHT22;11925;48.122;11.560;2022-09-02T09:43:11;18.10;99.90
23497;DHT22;11925;48.122;11.560;2022-09-02T09:45:43;18.00;99.90
23497;DHT22;11925;48.122;11.560;2022-09-02T09:48:18;18.00;99.90
23497;DHT22;11925;48.122;11.560;2022-09-02T09:51:10;18.00;99.90
23497;DHT22;11925;48.122;11.560;2022-09-02T09:53:38;18.00;99.90
23497;DHT22;11925;48.122;11.560;2022-09-02T09:56:22;18.10;99.90
23497;DHT22;11925;48.122;11.560;2022-09-02T09:58:51;18.00;99.90
23497;DHT22;11925;48.122;11.560;2022-09-02T10:01:21;18.10;99.90
23497;DHT22;11925;48.122;11.560;2022-09-02T10:03:51;18.10;99.90
23497;DHT22;11925;48.122;11.560;2022-09-02T10:06:23;18.10;99.90
23497;DHT22;11925;48.122;11.560;2022-09-02T10:08:54;18.00;99.90
23497;DHT22;11925;48.122;11.560;2022-09-02T10:11:24;18.00;99.90
23497;DHT22;11925;48.122;11.560;2022-09-02T10:13:58;18.00;99.90
23497;DHT22;11925;48.122;11.560;2022-09-02T10:16:36;18.00;99.90
23497;DHT22;11925;48.122;11.560;2022-09-02T10:19:13;18.00;99.90
23497;DHT22;11925;48.122;11.560;2022-09-02T10:21:55;18.00;99.90
23497;DHT22;11925;48.122;11.560;2022-09-02T10:24:43;18.00;99.90
23497;DHT22;11925;48.122;11.560;2022-09-02T10:27:30;18.00;99.90
23497;DHT22;11925;48.122;11.560;2022-09-02T10:30:04;18.10;99.90
23497;DHT22;11925;48.122;11.560;2022-09-02T10:32:50;18.10;99.90
23497;DHT22;11925;48.122;11.560;2022-09-02T10:35:28;18.10;99.90
23497;DHT22;11925;48.122;11.560;2022-09-02T10:38:15;18.10;99.90
23497;DHT22;11925;48.122;11.560;2022-09-02T10:40:54;18.10;99.90
23497;DHT22;11925;48.122;11.560;2022-09-02T10:43:33;18.10;99.90
23497;DHT22;11925;48.122;11.560;2022-09-02T10:46:08;18.00;99.90
23497;DHT22;11925;48.122;11.560;2022-09-02T10:48:46;18.00;99.90
23497;DHT22;11925;48.122;11.560;2022-09-02T10:51:21;18.00;99.90
23497;DHT22;11925;48.122;11.560;2022-09-02T10:54:07;18.00;99.90
23497;DHT22;11925;48.122;11.560;2022-09-02T10:56:44;18.10;99.90
23497;DHT22;11925;48.122;11.560;2022-09-02T10:59:20;18.10;99.90
23497;DHT22;11925;48.122;11.560;2022-09-02T11:01:53;18.00;99.90
23497;DHT22;11925;48.122;11.560;2022-09-02T11:04:29;18.00;99.90
23497;DHT22;11925;48.122;11.560;2022-09-02T11:07:03;18.00;99.90
23497;DHT22;11925;48.122;11.560;2022-09-02T11:09:36;18.00;99.90
23497;DHT22;11925;48.122;11.560;2022-09-02T11:12:10;18.10;99.90
23497;DHT22;11925;48.122;11.560;2022-09-02T11:14:50;18.10;99.90
23497;DHT22;11925;48.122;11.560;2022-09-02T11:17:24;18.10;99.90
23497;DHT22;11925;48.122;11.560;2022-09-02T11:19:57;18.10;99.90
23497;DHT22;11925;48.122;11.560;2022-09-02T11:22:33;18.00;99.90
23497;DHT22;11925;48.122;11.560;2022-09-02T11:25:13;18.00;99.90
23497;DHT22;11925;48.122;11.560;2022-09-02T11:27:45;18.00;99.90
23497;DHT22;11925;48.122;11.560;2022-09-02T11:30:17;18.10;99.90
23497;DHT22;11925;48.122;11.560;2022-09-02T11:32:51;18.10;99.90
23497;DHT22;11925;48.122;11.560;2022-09-02T11:35:22;18.00;99.90
23497;DHT22;11925;48.122;11.560;2022-09-02T11:37:58;18.00;99.90
23497;DHT22;11925;48.122;11.560;2022-09-02T11:40:34;18.00;99.90
23497;DHT22;11925;48.122;11.560;2022-09-02T11:43:22;18.10;99.90
23497;DHT22;11925;48.122;11.560;2022-09-02T11:49:33;18.10;99.90
23497;DHT22;11925;48.122;11.560;2022-09-02T11:52:23;18.10;99.90
23497;DHT22;11925;48.122;11.560;2022-09-02T11:55:02;18.10;99.90
23497;DHT22;11925;48.122;11.560;2022-09-02T11:57:34;18.10;99.90
23497;DHT22;11925;48.122;11.560;2022-09-02T12:00:12;18.10;99.90
23497;DHT22;11925;48.122;11.560;2022-09-02T12:02:43;18.10;99.90
23497;DHT22;11925;48.122;11.560;2022-09-02T12:05:43;18.10;99.90
23497;DHT22;11925;48.122;11.560;2022-09-02T12:11:49;18.10;99.90
23497;DHT22;11925;48.122;11.560;2022-09-02T12:21:03;18.10;99.90
23497;DHT22;11925;48.122;11.560;2022-09-02T12:29:31;18.10;99.90
23497;DHT22;11925;48.122;11.560;2022-09-02T12:32:00;18.10;99.90
23497;DHT22;11925;48.122;11.560;2022-09-02T12:34:55;18.10;99.90
23497;DHT22;11925;48.122;11.560;2022-09-02T12:37:52;18.10;99.90
23497;DHT22;11925;48.122;11.560;2022-09-02T12:40:29;18.10;99.90
23497;DHT22;11925;48.122;11.560;2022-09-02T12:43:01;18.10;99.90
23497;DHT22;11925;48.122;11.560;2022-09-02T12:45:32;18.10;99.90
23497;DHT22;11925;48.122;11.560;2022-09-02T12:48:06;18.10;99.90
23497;DHT22;11925;48.122;11.560;2022-09-02T12:50:52;18.10;99.90
23497;DHT22;11925;48.122;11.560;2022-09-02T12:53:40;18.10;99.90
23497;DHT22;11925;48.122;11.560;2022-09-02T12:56:19;18.10;99.90
23497;DHT22;11925;48.122;11.560;2022-09-02T12:58:50;18.10;99.90
23497;DHT22;11925;48.122;11.560;2022-09-02T13:01:24;18.10;99.90
23497;DHT22;11925;48.122;11.560;2022-09-02T13:07:33;18.10;99.90
23497;DHT22;11925;48.122;11.560;2022-09-02T13:10:45;18.00;99.90
23497;DHT22;11925;48.122;11.560;2022-09-02T13:13:40;18.10;99.90
23497;DHT22;11925;48.122;11.560;2022-09-02T13:16:16;18.10;99.90
23497;DHT22;11925;48.122;11.560;2022-09-02T13:19:09;18.10;99.90
23497;DHT22;11925;48.122;11.560;2022-09-02T13:22:06;18.10;99.90
23497;DHT22;11925;48.122;11.560;2022-09-02T13:25:04;18.10;99.90
23497;DHT22;11925;48.122;11.560;2022-09-02T13:28:01;18.10;99.90
23497;DHT22;11925;48.122;11.560;2022-09-02T13:31:00;18.10;99.90
23497;DHT22;11925;48.122;11.560;2022-09-02T13:33:31;18.10;99.90
23497;DHT22;11925;48.122;11.560;2022-09-02T13:36:00;18.10;99.90
23497;DHT22;11925;48.122;11.560;2022-09-02T13:38:29;18.10;99.90
23497;DHT22;11925;48.122;11.560;2022-09-02T13:41:00;18.10;99.90
23497;DHT22;11925;48.122;11.560;2022-09-02T13:43:28;18.10;99.90
23497;DHT22;11925;48.122;11.560;2022-09-02T13:45:59;18.10;99.90
23497;DHT22;11925;48.122;11.560;2022-09-02T13:48:31;18.10;99.90
23497;DHT22;11925;48.122;11.560;2022-09-02T13:51:08;18.10;99.90
23497;DHT22;11925;48.122;11.560;2022-09-02T13:53:40;18.10;99.90
23497;DHT22;11925;48.122;11.560;2022-09-02T13:56:31;18.10;99.90
23497;DHT22;11925;48.122;11.560;2022-09-02T13:58:59;18.10;99.90
23497;DHT22;11925;48.122;11.560;2022-09-02T14:01:29;18.10;99.90
23497;DHT22;11925;48.122;11.560;2022-09-02T14:04:02;18.10;99.90
23497;DHT22;11925;48.122;11.560;2022-09-02T14:06:38;18.10;99.90
23497;DHT22;11925;48.122;11.560;2022-09-02T14:09:16;18.10;99.90
23497;DHT22;11925;48.122;11.560;2022-09-02T14:11:48;18.10;99.90
23497;DHT22;11925;48.122;11.560;2022-09-02T14:14:20;18.10;99.90
23497;DHT22;11925;48.122;11.560;2022-09-02T14:16:50;18.10;99.90
23497;DHT22;11925;48.122;11.560;2022-09-02T14:19:23;18.10;99.90
23497;DHT22;11925;48.122;11.560;2022-09-02T14:21:53;18.10;99.90
23497;DHT22;11925;48.122;11.560;2022-09-02T14:24:25;18.10;99.90
23497;DHT22;11925;48.122;11.560;2022-09-02T14:26:56;18.10;99.90
23497;DHT22;11925;48.122;11.560;2022-09-02T14:29:26;18.10;99.90
23497;DHT22;11925;48.122;11.560;2022-09-02T14:32:08;18.10;99.90
23497;DHT22;11925;48.122;11.560;2022-09-02T14:34:40;18.20;99.90
23497;DHT22;11925;48.122;11.560;2022-09-02T14:37:22;18.10;99.90
23497;DHT22;11925;48.122;11.560;2022-09-02T14:40:07;18.10;99.90
23497;DHT22;11925;48.122;11.560;2022-09-02T14:42:48;18.20;99.90
23497;DHT22;11925;48.122;11.560;2022-09-02T14:45:25;18.10;99.90
23497;DHT22;11925;48.122;11.560;2022-09-02T14:47:56;18.20;99.90
23497;DHT22;11925;48.122;11.560;2022-09-02T14:50:28;18.10;99.90
23497;DHT22;11925;48.122;11.560;2022-09-02T14:53:02;18.10;99.90
23497;DHT22;11925;48.122;11.560;2022-09-02T14:55:44;18.20;99.90
23497;DHT22;11925;48.122;11.560;2022-09-02T14:58:16;18.20;99.90
23497;DHT22;11925;48.122;11.560;2022-09-02T15:00:45;18.20;99.90
23497;DHT22;11925;48.122;11.560;2022-09-02T15:03:15;18.20;99.90
23497;DHT22;11925;48.122;11.560;2022-09-02T15:05:43;18.20;99.90
23497;DHT22;11925;48.122;11.560;2022-09-02T15:08:12;18.10;99.90
23497;DHT22;11925;48.122;11.560;2022-09-02T15:10:42;18.10;99.90
23497;DHT22;11925;48.122;11.560;2022-09-02T15:13:12;18.10;99.90
23497;DHT22;11925;48.122;11.560;2022-09-02T15:15:43;18.10;99.90
23497;DHT22;11925;48.122;11.560;2022-09-02T15:18:13;18.10;99.90
23497;DHT22;11925;48.122;11.560;2022-09-02T15:20:41;18.10;99.90
23497;DHT22;11925;48.122;11.560;2022-09-02T15:23:10;18.10;99.90
23497;DHT22;11925;48.122;11.560;2022-09-02T15:25:39;18.10;99.90
23497;DHT22;11925;48.122;11.560;2022-09-02T15:28:07;18.10;99.90
23497;DHT22;11925;48.122;11.560;2022-09-02T15:30:37;18.10;99.90
23497;DHT22;11925;48.122;11.560;2022-09-02T15:33:08;18.20;99.90
23497;DHT22;11925;48.122;11.560;2022-09-02T15:35:43;18.20;99.90
23497;DHT22;11925;48.122;11.560;2022-09-02T15:38:12;18.20;99.90
23497;DHT22;11925;48.122;11.560;2022-09-02T15:40:41;18.20;99.90
23497;DHT22;11925;48.122;11.560;2022-09-02T15:43:10;18.00;99.90
23497;DHT22;11925;48.122;11.560;2022-09-02T15:45:43;18.20;99.90
23497;DHT22;11925;48.122;11.560;2022-09-02T15:48:14;18.10;99.90
23497;DHT22;11925;48.122;11.560;2022-09-02T15:50:42;18.10;99.90
23497;DHT22;11925;48.122;11.560;2022-09-02T15:53:13;18.10;99.90
23497;DHT22;11925;48.122;11.560;2022-09-02T15:55:41;18.10;99.90
23497;DHT22;11925;48.122;11.560;2022-09-02T15:58:10;18.10;99.90
23497;DHT22;11925;48.122;11.560;2022-09-02T16:00:38;18.10;99.90
23497;DHT22;11925;48.122;11.560;2022-09-02T16:03:09;18.20;99.90
23497;DHT22;11925;48.122;11.560;2022-09-02T16:05:39;18.20;99.90
23497;DHT22;11925;48.122;11.560;2022-09-02T16:08:09;18.20;99.90
23497;DHT22;11925;48.122;11.560;2022-09-02T16:10:37;18.20;99.90
23497;DHT22;11925;48.122;11.560;2022-09-02T16:13:06;18.10;99.90
23497;DHT22;11925;48.122;11.560;2022-09-02T16:15:34;18.10;99.90
23497;DHT22;11925;48.122;11.560;2022-09-02T16:18:02;18.20;99.90
23497;DHT22;11925;48.122;11.560;2022-09-02T16:20:31;18.20;99.90